RJNA(METAR)
05/21 23:00
METAR RJNA 211400Z 34003KT 4500 BR FEW005 BKN045 BKN080 17/16 Q1008
RMK 2ST005 5SC045 7AC080 A2977=
戻る
トップページへ戻る
IMOC Co,.Ltd.